Terminal Aerodrome Forecast
Issued by NWS Bismarck, ND

Home | Current Version | Previous Version | Graphics & Text | Print | Product List | Glossary On
Versions: 1 2 3 4 5 6 7 8 9 10 11 12 13 14 15
000
FTUS43 KBIS 282339
TAFISN
TAF
KISN 282339Z 2900/2924 28037G52KT P6SM -SHRA BKN035 OVC060
     FM290300 28025G33KT P6SM VCSH BKN045 OVC080
     FM290600 27015G24KT P6SM SCT120 SCT250
     FM291500 29018G26KT P6SM SKC=

USA.gov is the U.S. government's official web portal to all federal, state and local government web resources and services.